sensor_id;sensor_type;location;lat;lon;timestamp;temperature;humidity
19622;DHT22;9958;33.196;-97.114;2024-02-15T00:01:58;18.20;78.50
19622;DHT22;9958;33.196;-97.114;2024-02-15T00:04:26;18.20;78.80
19622;DHT22;9958;33.196;-97.114;2024-02-15T00:06:55;18.10;79.20
19622;DHT22;9958;33.196;-97.114;2024-02-15T00:09:23;18.00;79.20
19622;DHT22;9958;33.196;-97.114;2024-02-15T00:11:53;17.90;79.30
19622;DHT22;9958;33.196;-97.114;2024-02-15T00:14:22;17.90;79.60
19622;DHT22;9958;33.196;-97.114;2024-02-15T00:16:50;17.80;79.70
19622;DHT22;9958;33.196;-97.114;2024-02-15T00:19:18;17.70;80.10
19622;DHT22;9958;33.196;-97.114;2024-02-15T00:21:48;17.60;80.20
19622;DHT22;9958;33.196;-97.114;2024-02-15T00:24:16;17.60;80.40
19622;DHT22;9958;33.196;-97.114;2024-02-15T00:26:44;17.50;80.80
19622;DHT22;9958;33.196;-97.114;2024-02-15T00:29:14;17.40;80.90
19622;DHT22;9958;33.196;-97.114;2024-02-15T00:31:42;17.40;81.20
19622;DHT22;9958;33.196;-97.114;2024-02-15T00:34:11;17.30;81.50
19622;DHT22;9958;33.196;-97.114;2024-02-15T00:36:42;17.20;81.80
19622;DHT22;9958;33.196;-97.114;2024-02-15T00:39:11;17.20;82.10
19622;DHT22;9958;33.196;-97.114;2024-02-15T00:41:40;17.10;82.00
19622;DHT22;9958;33.196;-97.114;2024-02-15T00:44:09;17.00;82.60
19622;DHT22;9958;33.196;-97.114;2024-02-15T00:46:39;16.90;82.70
19622;DHT22;9958;33.196;-97.114;2024-02-15T00:49:08;16.90;83.00
19622;DHT22;9958;33.196;-97.114;2024-02-15T00:51:37;16.80;83.30
19622;DHT22;9958;33.196;-97.114;2024-02-15T00:54:05;16.80;83.50
19622;DHT22;9958;33.196;-97.114;2024-02-15T00:56:34;16.70;83.60
19622;DHT22;9958;33.196;-97.114;2024-02-15T00:59:02;16.70;84.00
19622;DHT22;9958;33.196;-97.114;2024-02-15T01:01:31;16.70;84.30
19622;DHT22;9958;33.196;-97.114;2024-02-15T01:04:01;16.60;84.80
19622;DHT22;9958;33.196;-97.114;2024-02-15T01:06:30;16.60;84.90
19622;DHT22;9958;33.196;-97.114;2024-02-15T01:08:59;16.60;85.30
19622;DHT22;9958;33.196;-97.114;2024-02-15T01:11:29;16.50;85.40
19622;DHT22;9958;33.196;-97.114;2024-02-15T01:13:58;16.50;85.90
19622;DHT22;9958;33.196;-97.114;2024-02-15T01:16:27;16.40;86.00
19622;DHT22;9958;33.196;-97.114;2024-02-15T01:18:55;16.40;86.50
19622;DHT22;9958;33.196;-97.114;2024-02-15T01:21:25;16.30;86.90
19622;DHT22;9958;33.196;-97.114;2024-02-15T01:23:53;16.30;87.40
19622;DHT22;9958;33.196;-97.114;2024-02-15T01:26:21;16.30;87.70
19622;DHT22;9958;33.196;-97.114;2024-02-15T01:28:50;16.20;88.00
19622;DHT22;9958;33.196;-97.114;2024-02-15T01:31:18;16.20;89.00
19622;DHT22;9958;33.196;-97.114;2024-02-15T01:33:46;16.20;88.50
19622;DHT22;9958;33.196;-97.114;2024-02-15T01:36:15;16.10;88.70
19622;DHT22;9958;33.196;-97.114;2024-02-15T01:38:45;16.10;89.10
19622;DHT22;9958;33.196;-97.114;2024-02-15T01:41:13;16.00;89.60
19622;DHT22;9958;33.196;-97.114;2024-02-15T01:43:44;16.00;90.00
19622;DHT22;9958;33.196;-97.114;2024-02-15T01:46:15;16.00;90.10
19622;DHT22;9958;33.196;-97.114;2024-02-15T01:48:44;15.90;90.20
19622;DHT22;9958;33.196;-97.114;2024-02-15T01:51:14;15.90;90.40
19622;DHT22;9958;33.196;-97.114;2024-02-15T01:53:45;15.80;90.60
19622;DHT22;9958;33.196;-97.114;2024-02-15T01:56:17;15.80;90.60
19622;DHT22;9958;33.196;-97.114;2024-02-15T01:58:46;15.80;90.90
19622;DHT22;9958;33.196;-97.114;2024-02-15T02:01:15;15.80;90.90
19622;DHT22;9958;33.196;-97.114;2024-02-15T02:03:44;15.70;91.00
19622;DHT22;9958;33.196;-97.114;2024-02-15T02:06:13;15.70;91.10
19622;DHT22;9958;33.196;-97.114;2024-02-15T02:08:41;15.70;91.20
19622;DHT22;9958;33.196;-97.114;2024-02-15T02:11:11;15.60;91.30
19622;DHT22;9958;33.196;-97.114;2024-02-15T02:13:40;15.60;91.40
19622;DHT22;9958;33.196;-97.114;2024-02-15T02:16:26;15.60;91.60
19622;DHT22;9958;33.196;-97.114;2024-02-15T02:18:55;15.60;91.70
19622;DHT22;9958;33.196;-97.114;2024-02-15T02:21:24;15.60;91.80
19622;DHT22;9958;33.196;-97.114;2024-02-15T02:23:55;15.50;91.80
19622;DHT22;9958;33.196;-97.114;2024-02-15T02:26:26;15.50;92.00
19622;DHT22;9958;33.196;-97.114;2024-02-15T02:28:54;15.50;92.10
19622;DHT22;9958;33.196;-97.114;2024-02-15T02:31:22;15.50;92.20
19622;DHT22;9958;33.196;-97.114;2024-02-15T02:33:52;15.40;92.40
19622;DHT22;9958;33.196;-97.114;2024-02-15T02:36:21;15.40;92.40
19622;DHT22;9958;33.196;-97.114;2024-02-15T02:38:53;15.40;92.50
19622;DHT22;9958;33.196;-97.114;2024-02-15T02:41:21;15.30;92.60
19622;DHT22;9958;33.196;-97.114;2024-02-15T02:43:51;15.30;92.80
19622;DHT22;9958;33.196;-97.114;2024-02-15T02:46:20;15.30;92.90
19622;DHT22;9958;33.196;-97.114;2024-02-15T02:48:48;15.30;93.00
19622;DHT22;9958;33.196;-97.114;2024-02-15T02:51:16;15.30;93.20
19622;DHT22;9958;33.196;-97.114;2024-02-15T02:53:45;15.30;93.20
19622;DHT22;9958;33.196;-97.114;2024-02-15T02:56:13;15.20;93.10
19622;DHT22;9958;33.196;-97.114;2024-02-15T02:58:41;15.20;93.20
19622;DHT22;9958;33.196;-97.114;2024-02-15T03:01:11;15.20;93.40
19622;DHT22;9958;33.196;-97.114;2024-02-15T03:03:40;15.20;93.60
19622;DHT22;9958;33.196;-97.114;2024-02-15T03:06:09;15.10;93.70
19622;DHT22;9958;33.196;-97.114;2024-02-15T03:08:37;15.10;93.80
19622;DHT22;9958;33.196;-97.114;2024-02-15T03:11:05;15.10;93.80
19622;DHT22;9958;33.196;-97.114;2024-02-15T03:13:34;15.00;93.90
19622;DHT22;9958;33.196;-97.114;2024-02-15T03:16:02;15.00;93.90
19622;DHT22;9958;33.196;-97.114;2024-02-15T03:18:33;15.00;94.00
19622;DHT22;9958;33.196;-97.114;2024-02-15T03:21:01;15.00;94.10
19622;DHT22;9958;33.196;-97.114;2024-02-15T03:23:30;15.00;94.30
19622;DHT22;9958;33.196;-97.114;2024-02-15T03:26:01;14.90;94.30
19622;DHT22;9958;33.196;-97.114;2024-02-15T03:28:30;15.00;94.40
19622;DHT22;9958;33.196;-97.114;2024-02-15T03:30:58;14.90;94.40
19622;DHT22;9958;33.196;-97.114;2024-02-15T03:33:27;14.90;94.50
19622;DHT22;9958;33.196;-97.114;2024-02-15T03:36:01;14.90;94.70
19622;DHT22;9958;33.196;-97.114;2024-02-15T03:38:30;14.80;94.70
19622;DHT22;9958;33.196;-97.114;2024-02-15T03:40:58;14.80;94.80
19622;DHT22;9958;33.196;-97.114;2024-02-15T03:43:26;14.80;94.90
19622;DHT22;9958;33.196;-97.114;2024-02-15T03:45:55;14.80;95.00
19622;DHT22;9958;33.196;-97.114;2024-02-15T03:48:24;14.80;95.00
19622;DHT22;9958;33.196;-97.114;2024-02-15T03:50:52;14.80;95.10
19622;DHT22;9958;33.196;-97.114;2024-02-15T03:53:22;14.80;95.20
19622;DHT22;9958;33.196;-97.114;2024-02-15T03:55:50;14.80;95.40
19622;DHT22;9958;33.196;-97.114;2024-02-15T03:58:19;14.80;95.40
19622;DHT22;9958;33.196;-97.114;2024-02-15T04:00:48;14.80;95.40
19622;DHT22;9958;33.196;-97.114;2024-02-15T04:03:16;14.80;95.40
19622;DHT22;9958;33.196;-97.114;2024-02-15T04:05:45;14.70;95.70
19622;DHT22;9958;33.196;-97.114;2024-02-15T04:08:15;14.70;95.90
19622;DHT22;9958;33.196;-97.114;2024-02-15T04:10:46;14.70;96.00
19622;DHT22;9958;33.196;-97.114;2024-02-15T04:13:15;14.70;96.20
19622;DHT22;9958;33.196;-97.114;2024-02-15T04:15:43;14.60;96.40
19622;DHT22;9958;33.196;-97.114;2024-02-15T04:18:13;14.60;96.50
19622;DHT22;9958;33.196;-97.114;2024-02-15T04:20:42;14.60;96.60
19622;DHT22;9958;33.196;-97.114;2024-02-15T04:23:12;14.60;96.80
19622;DHT22;9958;33.196;-97.114;2024-02-15T04:25:41;14.60;97.00
19622;DHT22;9958;33.196;-97.114;2024-02-15T04:28:12;14.50;97.10
19622;DHT22;9958;33.196;-97.114;2024-02-15T04:30:40;14.50;97.30
19622;DHT22;9958;33.196;-97.114;2024-02-15T04:33:09;14.50;97.40
19622;DHT22;9958;33.196;-97.114;2024-02-15T04:35:38;14.50;97.60
19622;DHT22;9958;33.196;-97.114;2024-02-15T04:38:06;14.50;97.80
19622;DHT22;9958;33.196;-97.114;2024-02-15T04:40:35;14.40;98.00
19622;DHT22;9958;33.196;-97.114;2024-02-15T04:43:06;14.40;98.20
19622;DHT22;9958;33.196;-97.114;2024-02-15T04:45:36;14.30;98.40
19622;DHT22;9958;33.196;-97.114;2024-02-15T04:48:06;14.30;98.70
19622;DHT22;9958;33.196;-97.114;2024-02-15T04:50:34;14.30;98.90
19622;DHT22;9958;33.196;-97.114;2024-02-15T04:53:02;14.20;99.00
19622;DHT22;9958;33.196;-97.114;2024-02-15T04:55:31;14.20;99.20
19622;DHT22;9958;33.196;-97.114;2024-02-15T04:58:00;14.20;99.30
19622;DHT22;9958;33.196;-97.114;2024-02-15T05:00:28;14.10;99.50
19622;DHT22;9958;33.196;-97.114;2024-02-15T05:02:58;14.10;99.70
19622;DHT22;9958;33.196;-97.114;2024-02-15T05:05:26;14.10;99.90
19622;DHT22;9958;33.196;-97.114;2024-02-15T05:07:55;14.00;99.90
19622;DHT22;9958;33.196;-97.114;2024-02-15T05:10:23;14.00;99.90
19622;DHT22;9958;33.196;-97.114;2024-02-15T05:12:52;14.00;99.90
19622;DHT22;9958;33.196;-97.114;2024-02-15T05:15:22;13.90;99.90
19622;DHT22;9958;33.196;-97.114;2024-02-15T05:17:51;13.90;99.90
19622;DHT22;9958;33.196;-97.114;2024-02-15T05:20:22;13.90;99.90
19622;DHT22;9958;33.196;-97.114;2024-02-15T05:22:53;13.80;99.90
19622;DHT22;9958;33.196;-97.114;2024-02-15T05:25:21;13.80;99.90
19622;DHT22;9958;33.196;-97.114;2024-02-15T05:27:53;13.80;99.90
19622;DHT22;9958;33.196;-97.114;2024-02-15T05:30:21;13.70;99.90
19622;DHT22;9958;33.196;-97.114;2024-02-15T05:32:50;13.70;99.90
19622;DHT22;9958;33.196;-97.114;2024-02-15T05:35:21;13.60;99.90
19622;DHT22;9958;33.196;-97.114;2024-02-15T05:37:50;13.60;99.90
19622;DHT22;9958;33.196;-97.114;2024-02-15T05:40:18;13.60;99.90
19622;DHT22;9958;33.196;-97.114;2024-02-15T05:42:47;13.60;99.90
19622;DHT22;9958;33.196;-97.114;2024-02-15T05:45:29;13.50;99.90
19622;DHT22;9958;33.196;-97.114;2024-02-15T05:47:59;13.50;99.90
19622;DHT22;9958;33.196;-97.114;2024-02-15T05:50:29;13.50;99.90
19622;DHT22;9958;33.196;-97.114;2024-02-15T05:52:57;13.40;99.90
19622;DHT22;9958;33.196;-97.114;2024-02-15T05:55:27;13.40;99.90
19622;DHT22;9958;33.196;-97.114;2024-02-15T05:57:57;13.40;99.90
19622;DHT22;9958;33.196;-97.114;2024-02-15T06:00:26;13.30;99.90
19622;DHT22;9958;33.196;-97.114;2024-02-15T06:02:56;13.30;99.90
19622;DHT22;9958;33.196;-97.114;2024-02-15T06:05:24;13.30;99.90
19622;DHT22;9958;33.196;-97.114;2024-02-15T06:07:54;13.20;99.90
19622;DHT22;9958;33.196;-97.114;2024-02-15T06:10:24;13.20;99.90
19622;DHT22;9958;33.196;-97.114;2024-02-15T06:12:52;13.20;99.90
19622;DHT22;9958;33.196;-97.114;2024-02-15T06:15:21;13.20;99.90
19622;DHT22;9958;33.196;-97.114;2024-02-15T06:17:50;13.10;99.90
19622;DHT22;9958;33.196;-97.114;2024-02-15T06:20:18;13.10;99.90
19622;DHT22;9958;33.196;-97.114;2024-02-15T06:22:47;13.10;99.90
19622;DHT22;9958;33.196;-97.114;2024-02-15T06:25:17;13.00;99.90
19622;DHT22;9958;33.196;-97.114;2024-02-15T06:27:47;13.00;99.90
19622;DHT22;9958;33.196;-97.114;2024-02-15T06:30:17;13.00;99.90
19622;DHT22;9958;33.196;-97.114;2024-02-15T06:33:03;12.90;99.90
19622;DHT22;9958;33.196;-97.114;2024-02-15T06:35:47;12.90;99.90
19622;DHT22;9958;33.196;-97.114;2024-02-15T06:38:32;12.80;99.90
19622;DHT22;9958;33.196;-97.114;2024-02-15T06:41:19;12.80;99.90
19622;DHT22;9958;33.196;-97.114;2024-02-15T06:43:47;12.80;99.90
19622;DHT22;9958;33.196;-97.114;2024-02-15T06:46:16;12.70;99.90
19622;DHT22;9958;33.196;-97.114;2024-02-15T06:48:45;12.60;99.90
19622;DHT22;9958;33.196;-97.114;2024-02-15T06:51:14;12.60;99.90
19622;DHT22;9958;33.196;-97.114;2024-02-15T06:53:42;12.60;99.90
19622;DHT22;9958;33.196;-97.114;2024-02-15T06:56:11;12.50;99.90
19622;DHT22;9958;33.196;-97.114;2024-02-15T06:58:41;12.50;99.90
19622;DHT22;9958;33.196;-97.114;2024-02-15T07:01:10;12.50;99.90
19622;DHT22;9958;33.196;-97.114;2024-02-15T07:03:39;12.40;99.90
19622;DHT22;9958;33.196;-97.114;2024-02-15T07:06:08;12.40;99.90
19622;DHT22;9958;33.196;-97.114;2024-02-15T07:08:36;12.40;99.90
19622;DHT22;9958;33.196;-97.114;2024-02-15T07:11:06;12.30;99.90
19622;DHT22;9958;33.196;-97.114;2024-02-15T07:13:35;12.30;99.90
19622;DHT22;9958;33.196;-97.114;2024-02-15T07:16:08;12.30;99.90
19622;DHT22;9958;33.196;-97.114;2024-02-15T07:18:37;12.20;99.90
19622;DHT22;9958;33.196;-97.114;2024-02-15T07:21:06;12.20;99.90
19622;DHT22;9958;33.196;-97.114;2024-02-15T07:23:37;12.10;99.90
19622;DHT22;9958;33.196;-97.114;2024-02-15T07:26:05;12.10;99.90
19622;DHT22;9958;33.196;-97.114;2024-02-15T07:28:34;12.10;99.90
19622;DHT22;9958;33.196;-97.114;2024-02-15T07:31:03;12.00;99.90
19622;DHT22;9958;33.196;-97.114;2024-02-15T07:33:33;12.00;99.90
19622;DHT22;9958;33.196;-97.114;2024-02-15T07:36:01;12.00;99.90
19622;DHT22;9958;33.196;-97.114;2024-02-15T07:38:30;12.00;99.90
19622;DHT22;9958;33.196;-97.114;2024-02-15T07:41:00;12.00;99.90
19622;DHT22;9958;33.196;-97.114;2024-02-15T07:43:29;11.90;99.90
19622;DHT22;9958;33.196;-97.114;2024-02-15T07:45:59;11.90;99.90
19622;DHT22;9958;33.196;-97.114;2024-02-15T07:48:28;11.90;99.90
19622;DHT22;9958;33.196;-97.114;2024-02-15T07:50:57;11.90;99.90
19622;DHT22;9958;33.196;-97.114;2024-02-15T07:53:26;11.90;99.90
19622;DHT22;9958;33.196;-97.114;2024-02-15T07:55:54;11.90;99.90
19622;DHT22;9958;33.196;-97.114;2024-02-15T07:58:24;11.90;99.90
19622;DHT22;9958;33.196;-97.114;2024-02-15T08:00:53;11.90;99.90
19622;DHT22;9958;33.196;-97.114;2024-02-15T08:03:22;11.90;99.90
19622;DHT22;9958;33.196;-97.114;2024-02-15T08:05:51;11.90;99.90
19622;DHT22;9958;33.196;-97.114;2024-02-15T08:08:21;11.90;99.90
19622;DHT22;9958;33.196;-97.114;2024-02-15T08:10:50;11.90;99.90
19622;DHT22;9958;33.196;-97.114;2024-02-15T08:13:18;11.80;99.90
19622;DHT22;9958;33.196;-97.114;2024-02-15T08:15:49;11.80;99.90
19622;DHT22;9958;33.196;-97.114;2024-02-15T08:18:19;11.80;99.90
19622;DHT22;9958;33.196;-97.114;2024-02-15T08:20:47;11.80;99.90
19622;DHT22;9958;33.196;-97.114;2024-02-15T08:23:15;11.80;99.90
19622;DHT22;9958;33.196;-97.114;2024-02-15T08:25:45;11.80;99.90
19622;DHT22;9958;33.196;-97.114;2024-02-15T08:28:14;11.80;99.90
19622;DHT22;9958;33.196;-97.114;2024-02-15T08:30:42;11.80;99.90
19622;DHT22;9958;33.196;-97.114;2024-02-15T08:33:10;11.80;99.90
19622;DHT22;9958;33.196;-97.114;2024-02-15T08:35:39;11.80;99.90
19622;DHT22;9958;33.196;-97.114;2024-02-15T08:38:08;11.70;99.90
19622;DHT22;9958;33.196;-97.114;2024-02-15T08:40:36;11.80;99.90
19622;DHT22;9958;33.196;-97.114;2024-02-15T08:43:06;11.80;99.90
19622;DHT22;9958;33.196;-97.114;2024-02-15T08:45:34;11.80;99.90
19622;DHT22;9958;33.196;-97.114;2024-02-15T08:48:04;11.80;99.90
19622;DHT22;9958;33.196;-97.114;2024-02-15T08:50:32;11.80;99.90
19622;DHT22;9958;33.196;-97.114;2024-02-15T08:53:01;11.80;99.90
19622;DHT22;9958;33.196;-97.114;2024-02-15T08:55:32;11.70;99.90
19622;DHT22;9958;33.196;-97.114;2024-02-15T08:58:02;11.70;99.90
19622;DHT22;9958;33.196;-97.114;2024-02-15T09:00:32;11.80;99.90
19622;DHT22;9958;33.196;-97.114;2024-02-15T09:03:00;11.80;99.90
19622;DHT22;9958;33.196;-97.114;2024-02-15T09:05:29;11.80;99.90
19622;DHT22;9958;33.196;-97.114;2024-02-15T09:07:57;11.80;99.90
19622;DHT22;9958;33.196;-97.114;2024-02-15T09:10:25;11.80;99.90
19622;DHT22;9958;33.196;-97.114;2024-02-15T09:12:54;11.80;99.90
19622;DHT22;9958;33.196;-97.114;2024-02-15T09:15:22;11.80;99.90
19622;DHT22;9958;33.196;-97.114;2024-02-15T09:17:52;11.90;99.90
19622;DHT22;9958;33.196;-97.114;2024-02-15T09:20:21;11.80;99.90
19622;DHT22;9958;33.196;-97.114;2024-02-15T09:22:52;11.90;99.90
19622;DHT22;9958;33.196;-97.114;2024-02-15T09:25:21;11.90;99.90
19622;DHT22;9958;33.196;-97.114;2024-02-15T09:27:51;11.90;99.90
19622;DHT22;9958;33.196;-97.114;2024-02-15T09:30:20;11.90;99.90
19622;DHT22;9958;33.196;-97.114;2024-02-15T09:32:52;11.90;99.90
19622;DHT22;9958;33.196;-97.114;2024-02-15T09:35:22;11.90;99.90
19622;DHT22;9958;33.196;-97.114;2024-02-15T09:37:50;12.00;99.90
19622;DHT22;9958;33.196;-97.114;2024-02-15T09:40:19;12.00;99.90
19622;DHT22;9958;33.196;-97.114;2024-02-15T09:42:48;12.00;99.90
19622;DHT22;9958;33.196;-97.114;2024-02-15T09:45:17;11.90;99.90
19622;DHT22;9958;33.196;-97.114;2024-02-15T09:47:47;12.00;99.90
19622;DHT22;9958;33.196;-97.114;2024-02-15T09:50:18;11.90;99.90
19622;DHT22;9958;33.196;-97.114;2024-02-15T09:52:50;11.90;99.90
19622;DHT22;9958;33.196;-97.114;2024-02-15T09:55:19;12.00;99.90
19622;DHT22;9958;33.196;-97.114;2024-02-15T09:57:50;12.00;99.90
19622;DHT22;9958;33.196;-97.114;2024-02-15T10:00:19;12.00;99.90
19622;DHT22;9958;33.196;-97.114;2024-02-15T10:02:50;12.00;99.90
19622;DHT22;9958;33.196;-97.114;2024-02-15T10:05:20;11.90;99.90
19622;DHT22;9958;33.196;-97.114;2024-02-15T10:07:49;12.00;99.90
19622;DHT22;9958;33.196;-97.114;2024-02-15T10:10:18;12.00;99.90
19622;DHT22;9958;33.196;-97.114;2024-02-15T10:12:47;12.00;99.90
19622;DHT22;9958;33.196;-97.114;2024-02-15T10:15:31;11.90;99.90
19622;DHT22;9958;33.196;-97.114;2024-02-15T10:18:01;11.90;99.90
19622;DHT22;9958;33.196;-97.114;2024-02-15T10:20:31;12.00;99.90
19622;DHT22;9958;33.196;-97.114;2024-02-15T10:23:10;11.90;99.90
19622;DHT22;9958;33.196;-97.114;2024-02-15T10:25:39;12.00;99.90
19622;DHT22;9958;33.196;-97.114;2024-02-15T10:28:09;11.90;99.90
19622;DHT22;9958;33.196;-97.114;2024-02-15T10:30:38;11.90;99.90
19622;DHT22;9958;33.196;-97.114;2024-02-15T10:33:10;11.90;99.90
19622;DHT22;9958;33.196;-97.114;2024-02-15T10:35:40;11.90;99.90
19622;DHT22;9958;33.196;-97.114;2024-02-15T10:38:09;12.00;99.90
19622;DHT22;9958;33.196;-97.114;2024-02-15T10:40:40;11.90;99.90
19622;DHT22;9958;33.196;-97.114;2024-02-15T10:43:09;11.90;99.90
19622;DHT22;9958;33.196;-97.114;2024-02-15T10:45:39;11.90;99.90
19622;DHT22;9958;33.196;-97.114;2024-02-15T10:48:08;11.90;99.90
19622;DHT22;9958;33.196;-97.114;2024-02-15T10:50:42;11.90;99.90
19622;DHT22;9958;33.196;-97.114;2024-02-15T10:53:21;11.90;99.90
19622;DHT22;9958;33.196;-97.114;2024-02-15T10:55:56;11.90;99.90
19622;DHT22;9958;33.196;-97.114;2024-02-15T10:58:28;11.90;99.90
19622;DHT22;9958;33.196;-97.114;2024-02-15T11:01:02;11.90;99.90
19622;DHT22;9958;33.196;-97.114;2024-02-15T11:03:36;11.80;99.90
19622;DHT22;9958;33.196;-97.114;2024-02-15T11:06:10;11.80;99.90
19622;DHT22;9958;33.196;-97.114;2024-02-15T11:08:39;11.80;99.90
19622;DHT22;9958;33.196;-97.114;2024-02-15T11:11:08;11.80;99.90
19622;DHT22;9958;33.196;-97.114;2024-02-15T11:13:40;11.80;99.90
19622;DHT22;9958;33.196;-97.114;2024-02-15T11:16:09;11.80;99.90
19622;DHT22;9958;33.196;-97.114;2024-02-15T11:18:43;11.80;99.90
19622;DHT22;9958;33.196;-97.114;2024-02-15T11:24:30;11.80;99.90
19622;DHT22;9958;33.196;-97.114;2024-02-15T11:26:59;11.80;99.90
19622;DHT22;9958;33.196;-97.114;2024-02-15T11:29:49;11.80;99.90
19622;DHT22;9958;33.196;-97.114;2024-02-15T11:32:37;11.80;99.90
19622;DHT22;9958;33.196;-97.114;2024-02-15T11:35:07;11.80;99.90
19622;DHT22;9958;33.196;-97.114;2024-02-15T11:37:53;11.80;99.90
19622;DHT22;9958;33.196;-97.114;2024-02-15T11:40:22;11.70;99.90
19622;DHT22;9958;33.196;-97.114;2024-02-15T11:42:51;11.70;99.90
19622;DHT22;9958;33.196;-97.114;2024-02-15T11:45:20;11.70;99.90
19622;DHT22;9958;33.196;-97.114;2024-02-15T11:47:50;11.70;99.90
19622;DHT22;9958;33.196;-97.114;2024-02-15T11:50:20;11.70;99.90
19622;DHT22;9958;33.196;-97.114;2024-02-15T11:52:49;11.70;99.90
19622;DHT22;9958;33.196;-97.114;2024-02-15T11:55:22;11.70;99.90
19622;DHT22;9958;33.196;-97.114;2024-02-15T11:58:00;11.70;99.90
19622;DHT22;9958;33.196;-97.114;2024-02-15T12:00:32;11.70;99.90
19622;DHT22;9958;33.196;-97.114;2024-02-15T12:03:17;11.70;99.90
19622;DHT22;9958;33.196;-97.114;2024-02-15T12:06:04;11.70;99.90
19622;DHT22;9958;33.196;-97.114;2024-02-15T12:08:51;11.60;99.90
19622;DHT22;9958;33.196;-97.114;2024-02-15T12:11:38;11.60;99.90
19622;DHT22;9958;33.196;-97.114;2024-02-15T12:14:24;11.60;99.90
19622;DHT22;9958;33.196;-97.114;2024-02-15T12:17:10;11.60;99.90
19622;DHT22;9958;33.196;-97.114;2024-02-15T12:19:56;11.50;99.90
19622;DHT22;9958;33.196;-97.114;2024-02-15T12:22:26;11.50;99.90
19622;DHT22;9958;33.196;-97.114;2024-02-15T12:24:59;11.50;99.90
19622;DHT22;9958;33.196;-97.114;2024-02-15T12:27:29;11.50;99.90
19622;DHT22;9958;33.196;-97.114;2024-02-15T12:29:59;11.50;99.90
19622;DHT22;9958;33.196;-97.114;2024-02-15T12:32:28;11.50;99.90
19622;DHT22;9958;33.196;-97.114;2024-02-15T12:35:11;11.40;99.90
19622;DHT22;9958;33.196;-97.114;2024-02-15T12:37:43;11.40;99.90
19622;DHT22;9958;33.196;-97.114;2024-02-15T12:40:12;11.40;99.90
19622;DHT22;9958;33.196;-97.114;2024-02-15T12:42:45;11.40;99.90
19622;DHT22;9958;33.196;-97.114;2024-02-15T12:45:17;11.30;99.90
19622;DHT22;9958;33.196;-97.114;2024-02-15T12:47:47;11.30;99.90
19622;DHT22;9958;33.196;-97.114;2024-02-15T12:50:17;11.20;99.90
19622;DHT22;9958;33.196;-97.114;2024-02-15T12:52:46;11.20;99.90
19622;DHT22;9958;33.196;-97.114;2024-02-15T12:55:16;11.20;99.90
19622;DHT22;9958;33.196;-97.114;2024-02-15T12:57:48;11.20;99.90
19622;DHT22;9958;33.196;-97.114;2024-02-15T13:00:19;11.20;99.90
19622;DHT22;9958;33.196;-97.114;2024-02-15T13:02:48;11.10;99.90
19622;DHT22;9958;33.196;-97.114;2024-02-15T13:05:17;11.10;99.90
19622;DHT22;9958;33.196;-97.114;2024-02-15T13:07:46;11.10;99.90
19622;DHT22;9958;33.196;-97.114;2024-02-15T13:10:15;11.10;99.90
19622;DHT22;9958;33.196;-97.114;2024-02-15T13:12:45;11.10;99.90
19622;DHT22;9958;33.196;-97.114;2024-02-15T13:15:15;11.00;99.90
19622;DHT22;9958;33.196;-97.114;2024-02-15T13:17:44;11.00;99.90
19622;DHT22;9958;33.196;-97.114;2024-02-15T13:20:13;11.00;99.90
19622;DHT22;9958;33.196;-97.114;2024-02-15T13:22:42;11.00;99.90
19622;DHT22;9958;33.196;-97.114;2024-02-15T13:25:11;10.90;99.90
19622;DHT22;9958;33.196;-97.114;2024-02-15T13:27:39;10.90;99.90
19622;DHT22;9958;33.196;-97.114;2024-02-15T13:30:11;10.90;99.90
19622;DHT22;9958;33.196;-97.114;2024-02-15T13:32:40;10.90;99.90
19622;DHT22;9958;33.196;-97.114;2024-02-15T13:35:09;10.90;99.90
19622;DHT22;9958;33.196;-97.114;2024-02-15T13:37:41;10.90;99.90
19622;DHT22;9958;33.196;-97.114;2024-02-15T13:40:13;10.90;99.90
19622;DHT22;9958;33.196;-97.114;2024-02-15T13:42:43;10.90;99.90
19622;DHT22;9958;33.196;-97.114;2024-02-15T13:45:20;10.90;99.90
19622;DHT22;9958;33.196;-97.114;2024-02-15T13:47:50;11.00;99.90
19622;DHT22;9958;33.196;-97.114;2024-02-15T13:50:20;11.00;99.90
19622;DHT22;9958;33.196;-97.114;2024-02-15T13:52:48;11.00;99.90
19622;DHT22;9958;33.196;-97.114;2024-02-15T13:55:17;11.10;99.90
19622;DHT22;9958;33.196;-97.114;2024-02-15T13:57:47;11.10;99.90
19622;DHT22;9958;33.196;-97.114;2024-02-15T14:00:16;11.20;99.90
19622;DHT22;9958;33.196;-97.114;2024-02-15T14:02:51;11.20;99.90
19622;DHT22;9958;33.196;-97.114;2024-02-15T14:05:21;11.20;99.90
19622;DHT22;9958;33.196;-97.114;2024-02-15T14:07:52;11.40;99.90
19622;DHT22;9958;33.196;-97.114;2024-02-15T14:10:22;11.40;99.90
19622;DHT22;9958;33.196;-97.114;2024-02-15T14:12:51;11.50;99.90
19622;DHT22;9958;33.196;-97.114;2024-02-15T14:15:21;11.50;99.90
19622;DHT22;9958;33.196;-97.114;2024-02-15T14:17:51;11.60;99.90
19622;DHT22;9958;33.196;-97.114;2024-02-15T14:20:20;11.70;99.90
19622;DHT22;9958;33.196;-97.114;2024-02-15T14:22:49;11.80;99.90
19622;DHT22;9958;33.196;-97.114;2024-02-15T14:25:22;11.80;99.90
19622;DHT22;9958;33.196;-97.114;2024-02-15T14:27:53;12.00;99.90
19622;DHT22;9958;33.196;-97.114;2024-02-15T14:30:22;12.10;99.90
19622;DHT22;9958;33.196;-97.114;2024-02-15T14:33:09;12.20;99.90
19622;DHT22;9958;33.196;-97.114;2024-02-15T14:35:40;12.30;99.90
19622;DHT22;9958;33.196;-97.114;2024-02-15T14:38:10;12.40;99.90
19622;DHT22;9958;33.196;-97.114;2024-02-15T14:40:39;12.50;99.90
19622;DHT22;9958;33.196;-97.114;2024-02-15T14:43:09;12.60;99.90
19622;DHT22;9958;33.196;-97.114;2024-02-15T14:45:39;12.70;99.90
19622;DHT22;9958;33.196;-97.114;2024-02-15T14:48:10;12.80;99.90
19622;DHT22;9958;33.196;-97.114;2024-02-15T14:50:39;12.90;99.90
19622;DHT22;9958;33.196;-97.114;2024-02-15T14:53:07;13.00;99.90
19622;DHT22;9958;33.196;-97.114;2024-02-15T14:55:36;13.10;99.90
19622;DHT22;9958;33.196;-97.114;2024-02-15T14:58:05;13.20;99.90
19622;DHT22;9958;33.196;-97.114;2024-02-15T15:00:34;13.40;99.90
19622;DHT22;9958;33.196;-97.114;2024-02-15T15:03:04;13.50;99.90
19622;DHT22;9958;33.196;-97.114;2024-02-15T15:05:34;13.60;99.90
19622;DHT22;9958;33.196;-97.114;2024-02-15T15:08:19;13.70;99.90
19622;DHT22;9958;33.196;-97.114;2024-02-15T15:11:04;13.80;99.90
19622;DHT22;9958;33.196;-97.114;2024-02-15T15:13:49;13.90;99.90
19622;DHT22;9958;33.196;-97.114;2024-02-15T15:16:18;14.00;99.90
19622;DHT22;9958;33.196;-97.114;2024-02-15T15:18:47;14.10;99.90
19622;DHT22;9958;33.196;-97.114;2024-02-15T15:21:18;14.20;99.90
19622;DHT22;9958;33.196;-97.114;2024-02-15T15:23:47;14.30;99.90
19622;DHT22;9958;33.196;-97.114;2024-02-15T15:26:19;14.40;99.90
19622;DHT22;9958;33.196;-97.114;2024-02-15T15:28:48;14.40;99.90
19622;DHT22;9958;33.196;-97.114;2024-02-15T15:31:17;14.50;99.90
19622;DHT22;9958;33.196;-97.114;2024-02-15T15:33:46;14.60;99.90
19622;DHT22;9958;33.196;-97.114;2024-02-15T15:36:17;14.60;99.90
19622;DHT22;9958;33.196;-97.114;2024-02-15T15:38:45;14.60;99.90